Terminal Aerodrome Forecast
Issued by NWS Tiyan, Guam

Home | Current Version | Previous Version | Text Only | Print | Product List | Glossary On
Versions: 1 2 3 4 5 6 7 8 9 10 11 12 13 14
000
FTPQ31 PGUM 042323
TAFGUM
TAF
PGUM 042323Z 0500/0606 09013G23KT P6SM VCSH SCT018 SCT060
      TEMPO 0500/0503 5SM -SHRA SCT016 BKN030=

USA.gov is the U.S. government's official web portal to all federal, state and local government web resources and services.